Time;durP1;ratioP1;P1;durP2;ratioP2;P2;SDS_P1;SDS_P2;PMS_P1;PMS_P2;Temp;Humidity;BMP_temperature;BMP_pressure;BME280_temperature;BME280_humidity;BME280_pressure;Samples;Min_cycle;Max_cycle;Signal;HPM_P1;HPM_P2
2022/07/28 00:00:53;;;;;;;379.30;362.63;;;14.90;99.90;;;;;;4897134;29;20397;-82
2022/07/28 00:03:20;;;;;;;461.95;441.02;;;14.90;99.90;;;;;;4893348;29;20422;-81
2022/07/28 00:05:48;;;;;;;393.98;376.75;;;14.90;99.90;;;;;;4904807;29;20549;-81
2022/07/28 00:08:16;;;;;;;400.08;382.20;;;15.00;99.90;;;;;;4905580;29;20418;-81
2022/07/28 00:10:43;;;;;;;507.27;482.90;;;15.00;99.90;;;;;;4897964;29;20400;-81
2022/07/28 00:13:11;;;;;;;404.42;386.60;;;15.00;99.90;;;;;;4907713;29;20421;-80
2022/07/28 00:15:39;;;;;;;379.35;363.23;;;14.90;99.90;;;;;;4888122;29;20416;-82
2022/07/28 00:18:06;;;;;;;368.33;352.20;;;14.80;99.90;;;;;;4904049;29;20439;-81
2022/07/28 00:20:34;;;;;;;329.05;315.75;;;14.80;99.90;;;;;;4886998;29;20772;-81
2022/07/28 00:23:02;;;;;;;389.30;371.98;;;14.80;99.90;;;;;;4893192;29;20768;-80
2022/07/28 00:25:30;;;;;;;394.42;377.15;;;14.80;99.90;;;;;;4888773;29;20785;-81
2022/07/28 00:27:57;;;;;;;402.85;384.55;;;14.80;99.90;;;;;;4889038;29;20450;-82
2022/07/28 00:30:25;;;;;;;421.33;402.40;;;14.90;99.90;;;;;;4903231;29;20415;-83
2022/07/28 00:32:52;;;;;;;450.60;429.77;;;14.90;99.90;;;;;;4903447;29;20512;-81
2022/07/28 00:35:20;;;;;;;357.48;342.42;;;14.80;99.90;;;;;;4889784;29;20503;-81
2022/07/28 00:37:57;;;;;;;391.83;374.42;;;14.80;99.90;;;;;;4888099;29;20405;-82
2022/07/28 00:41:09;;;;;;;314.80;301.48;;;14.80;99.90;;;;;;4904633;29;20407;-81
2022/07/28 00:43:14;;;;;;;432.17;412.65;;;14.80;99.90;;;;;;4902148;29;20419;-82
2022/07/28 00:45:42;;;;;;;344.92;330.65;;;14.90;99.90;;;;;;4895363;29;21135;-81
2022/07/28 00:48:10;;;;;;;367.98;352.25;;;14.80;99.90;;;;;;4888037;29;20890;-81
2022/07/28 00:50:39;;;;;;;415.58;397.40;;;14.80;99.90;;;;;;4888123;29;20509;-81
2022/07/28 00:53:07;;;;;;;430.23;411.15;;;14.80;99.90;;;;;;4888426;29;20472;-82
2022/07/28 00:55:37;;;;;;;391.38;374.13;;;14.80;99.90;;;;;;4888215;29;20841;-81
2022/07/28 00:58:28;;;;;;;393.92;377.13;;;14.80;99.90;;;;;;4880470;29;20866;-82
2022/07/28 01:00:56;;;;;;;519.05;493.75;;;14.70;99.90;;;;;;4889791;29;20426;-81
2022/07/28 01:03:24;;;;;;;384.02;367.42;;;14.70;99.90;;;;;;4890092;29;20420;-81
2022/07/28 01:05:57;;;;;;;361.50;345.08;;;14.70;99.90;;;;;;4890062;29;20413;-82
2022/07/28 01:08:25;;;;;;;365.75;349.58;;;14.50;99.90;;;;;;4904292;29;20452;-82
2022/07/28 01:11:04;;;;;;;356.88;341.65;;;14.50;99.90;;;;;;4899898;29;20413;-81
2022/07/28 01:13:52;;;;;;;397.73;379.60;;;14.60;99.90;;;;;;4902199;29;20445;-81
2022/07/28 01:16:20;;;;;;;324.60;308.25;;;14.60;99.90;;;;;;4892943;29;20502;-80
2022/07/28 01:19:01;;;;;;;354.35;339.65;;;14.60;99.90;;;;;;4879541;29;20430;-81
2022/07/28 01:21:34;;;;;;;363.00;347.48;;;14.50;99.90;;;;;;4887609;29;20913;-81
2022/07/28 01:24:30;;;;;;;361.67;345.63;;;14.30;99.90;;;;;;4885268;29;20477;-80
2022/07/28 01:27:14;;;;;;;363.52;347.63;;;14.50;99.90;;;;;;4880958;29;20426;-80
2022/07/28 01:30:03;;;;;;;404.42;386.35;;;14.60;99.90;;;;;;4889020;29;21100;-81
2022/07/28 01:32:45;;;;;;;440.75;420.85;;;14.60;99.90;;;;;;4903670;29;20460;-81
2022/07/28 01:35:22;;;;;;;383.90;366.88;;;14.60;99.90;;;;;;4885443;29;20459;-81
2022/07/28 01:37:53;;;;;;;379.55;363.05;;;14.60;99.90;;;;;;4886321;29;20395;-81
2022/07/28 01:40:25;;;;;;;458.70;438.40;;;14.60;99.90;;;;;;4908533;29;20400;-81
2022/07/28 01:42:58;;;;;;;385.90;368.90;;;14.60;99.90;;;;;;4888820;29;20438;-79
2022/07/28 01:45:26;;;;;;;421.73;402.58;;;14.50;99.90;;;;;;4885493;29;20443;-82
2022/07/28 01:47:56;;;;;;;377.48;360.75;;;14.40;99.90;;;;;;4887788;29;20409;-81
2022/07/28 01:50:25;;;;;;;364.58;348.73;;;14.40;99.90;;;;;;4884683;29;20423;-82
2022/07/28 01:52:55;;;;;;;398.58;380.90;;;14.40;99.90;;;;;;4903091;29;20516;-80
2022/07/28 01:55:25;;;;;;;441.85;421.88;;;14.50;99.90;;;;;;4882504;29;20399;-81
2022/07/28 01:57:55;;;;;;;354.87;339.57;;;14.60;99.90;;;;;;4889114;29;20417;-81
2022/07/28 02:00:24;;;;;;;355.70;340.45;;;14.60;99.90;;;;;;4888329;29;20554;-81
2022/07/28 02:02:56;;;;;;;362.27;346.63;;;14.50;99.90;;;;;;4887312;29;20841;-81
2022/07/28 02:05:25;;;;;;;319.73;306.33;;;14.60;99.90;;;;;;4881699;29;20497;-82
2022/07/28 02:07:54;;;;;;;370.10;353.88;;;14.60;99.90;;;;;;4887800;29;20460;-80
2022/07/28 02:10:23;;;;;;;427.15;407.27;;;14.60;99.90;;;;;;4887118;29;20424;-81
2022/07/28 02:12:53;;;;;;;388.55;370.52;;;14.60;99.90;;;;;;4887166;29;20474;-81
2022/07/28 02:15:23;;;;;;;368.42;351.80;;;14.50;99.90;;;;;;4888289;29;20803;-81
2022/07/28 02:17:52;;;;;;;397.57;379.53;;;14.40;99.90;;;;;;4887132;29;20499;-81
2022/07/28 02:20:21;;;;;;;438.95;418.30;;;14.50;99.90;;;;;;4901167;29;20924;-81
2022/07/28 02:22:51;;;;;;;408.13;388.83;;;14.50;99.90;;;;;;4886764;29;20447;-81
2022/07/28 02:25:20;;;;;;;388.42;370.90;;;14.50;99.90;;;;;;4886640;29;20815;-81
2022/07/28 02:28:02;;;;;;;424.83;404.35;;;14.50;99.90;;;;;;4886665;29;20493;-81
2022/07/28 02:30:37;;;;;;;430.40;409.98;;;14.50;99.90;;;;;;4901098;29;20418;-81
2022/07/28 02:33:15;;;;;;;406.30;386.48;;;14.40;99.90;;;;;;4883480;29;20414;-81
2022/07/28 02:36:12;;;;;;;464.77;442.33;;;14.20;99.90;;;;;;4880188;29;20420;-81
2022/07/28 02:38:46;;;;;;;458.47;437.13;;;14.20;99.90;;;;;;4888387;29;20915;-80
2022/07/28 02:41:38;;;;;;;359.10;342.27;;;14.20;99.90;;;;;;4887967;29;20427;-80
2022/07/28 02:44:17;;;;;;;458.55;436.77;;;14.10;99.90;;;;;;4884622;29;20422;-80
2022/07/28 02:46:50;;;;;;;394.17;376.58;;;14.20;99.90;;;;;;4897546;29;20417;-81
2022/07/28 02:49:22;;;;;;;429.23;408.55;;;14.20;99.90;;;;;;4898661;29;20425;-81
2022/07/28 02:51:52;;;;;;;444.30;422.92;;;14.30;99.90;;;;;;4888034;29;20413;-81
2022/07/28 02:54:22;;;;;;;462.20;440.45;;;14.20;99.90;;;;;;4886040;29;20401;-81
2022/07/28 02:56:53;;;;;;;416.77;396.80;;;14.20;99.90;;;;;;4900941;29;20410;-81
2022/07/28 02:59:23;;;;;;;428.15;408.30;;;14.00;99.90;;;;;;4879994;29;20463;-81
2022/07/28 03:01:51;;;;;;;442.73;420.67;;;14.00;99.90;;;;;;4897576;29;20486;-81
2022/07/28 03:04:55;;;;;;;456.02;434.98;;;14.00;99.90;;;;;;4898758;29;20425;-81
2022/07/28 03:07:08;;;;;;;368.92;351.38;;;14.10;99.90;;;;;;4902457;29;20421;-80
2022/07/28 03:09:42;;;;;;;471.30;449.02;;;14.10;99.90;;;;;;4892250;29;20778;-81
2022/07/28 03:12:10;;;;;;;367.90;351.88;;;14.00;99.90;;;;;;4892119;29;20414;-80
2022/07/28 03:14:38;;;;;;;357.00;341.30;;;14.00;99.90;;;;;;4891490;29;20409;-80
2022/07/28 03:17:06;;;;;;;396.98;379.50;;;14.00;99.90;;;;;;4889567;29;20820;-81
2022/07/28 03:19:34;;;;;;;403.30;384.17;;;14.10;99.90;;;;;;4895259;29;20417;-81
2022/07/28 03:22:02;;;;;;;456.80;435.77;;;14.20;99.90;;;;;;4891759;29;20440;-81
2022/07/28 03:24:36;;;;;;;429.38;409.70;;;14.20;99.90;;;;;;4891863;29;20778;-81
2022/07/28 03:27:22;;;;;;;407.40;389.35;;;14.20;99.90;;;;;;4905794;29;20416;-81
2022/07/28 03:30:14;;;;;;;454.25;433.58;;;14.20;99.90;;;;;;4889297;29;20410;-81
2022/07/28 03:32:50;;;;;;;496.40;472.45;;;14.20;99.90;;;;;;4889570;29;20410;-81
2022/07/28 03:35:18;;;;;;;432.60;412.98;;;14.10;99.90;;;;;;4895749;29;20530;-81
2022/07/28 03:37:57;;;;;;;482.30;459.20;;;14.10;99.90;;;;;;4887972;29;20497;-81
2022/07/28 03:40:28;;;;;;;424.95;405.73;;;14.10;99.90;;;;;;4894422;29;20442;-81
2022/07/28 03:42:56;;;;;;;462.02;440.33;;;14.20;99.90;;;;;;4896623;29;20516;-81
2022/07/28 03:45:25;;;;;;;377.50;359.00;;;14.30;99.90;;;;;;4890630;29;20408;-81
2022/07/28 03:47:55;;;;;;;422.37;403.20;;;14.10;99.90;;;;;;4890526;29;20402;-81
2022/07/28 03:50:28;;;;;;;402.25;383.52;;;14.10;99.90;;;;;;4901519;29;20476;-80
2022/07/28 03:52:56;;;;;;;380.58;363.73;;;14.00;99.90;;;;;;4889555;29;21074;-82
2022/07/28 03:55:25;;;;;;;435.45;415.23;;;14.10;99.90;;;;;;4889323;29;20421;-81
2022/07/28 03:57:53;;;;;;;404.08;386.40;;;14.00;99.90;;;;;;4885966;29;20402;-81
2022/07/28 04:00:22;;;;;;;473.02;450.80;;;14.00;99.90;;;;;;4888498;29;20409;-81
2022/07/28 04:02:49;;;;;;;444.00;422.40;;;14.10;99.90;;;;;;4899454;29;20413;-82
2022/07/28 04:05:18;;;;;;;424.40;404.80;;;14.10;99.90;;;;;;4885308;29;20443;-81
2022/07/28 04:07:46;;;;;;;410.25;391.92;;;14.00;99.90;;;;;;4903912;29;20422;-81
2022/07/28 04:10:16;;;;;;;412.80;394.27;;;14.00;99.90;;;;;;4888256;29;20425;-81
2022/07/28 04:12:48;;;;;;;302.95;288.90;;;14.00;99.90;;;;;;4895509;29;20781;-81
2022/07/28 04:15:17;;;;;;;401.50;383.55;;;13.90;99.90;;;;;;4888463;29;20411;-82
2022/07/28 04:17:47;;;;;;;405.52;387.27;;;14.00;99.90;;;;;;4891025;29;20393;-81
2022/07/28 04:20:16;;;;;;;449.38;428.95;;;14.00;99.90;;;;;;4886869;29;20500;-81
2022/07/28 04:22:45;;;;;;;278.33;264.48;;;14.10;99.90;;;;;;4888893;29;20412;-81
2022/07/28 04:25:15;;;;;;;407.60;389.43;;;13.90;99.90;;;;;;4902845;29;20488;-81
2022/07/28 04:27:43;;;;;;;438.08;417.40;;;13.80;99.90;;;;;;4903259;29;20858;-81
2022/07/28 04:30:16;;;;;;;390.67;373.23;;;13.90;99.90;;;;;;4894392;29;20838;-81
2022/07/28 04:32:45;;;;;;;335.42;320.08;;;13.90;99.90;;;;;;4890248;29;20422;-82
2022/07/28 04:35:14;;;;;;;412.38;394.08;;;14.00;99.90;;;;;;4894744;29;20443;-82
2022/07/28 04:37:45;;;;;;;492.73;470.00;;;14.00;99.90;;;;;;4889534;29;20780;-81
2022/07/28 04:40:13;;;;;;;314.25;299.67;;;14.10;99.90;;;;;;4890087;29;20497;-81
2022/07/28 04:42:41;;;;;;;380.43;363.03;;;14.10;99.90;;;;;;4887709;29;20444;-82
2022/07/28 04:45:13;;;;;;;468.75;447.13;;;14.20;99.90;;;;;;4882080;29;21012;-82
2022/07/28 04:47:40;;;;;;;405.80;387.60;;;14.20;99.90;;;;;;4879440;29;20421;-81
2022/07/28 04:50:10;;;;;;;454.23;433.77;;;14.30;99.90;;;;;;4896285;29;20425;-82
2022/07/28 04:52:38;;;;;;;453.48;432.65;;;14.30;99.90;;;;;;4894425;29;20833;-81
2022/07/28 04:55:07;;;;;;;435.75;416.50;;;14.30;99.90;;;;;;4884579;29;20402;-81
2022/07/28 04:57:35;;;;;;;438.73;418.38;;;14.30;99.90;;;;;;4904653;29;20464;-82
2022/07/28 05:00:10;;;;;;;391.58;373.55;;;14.30;99.90;;;;;;4885708;29;20409;-82
2022/07/28 05:02:44;;;;;;;405.90;387.10;;;14.30;99.90;;;;;;4888149;29;20507;-81
2022/07/28 05:05:12;;;;;;;385.70;367.92;;;14.30;99.90;;;;;;4886929;29;20417;-81
2022/07/28 05:07:40;;;;;;;368.03;351.33;;;14.30;99.90;;;;;;4894648;29;20813;-81
2022/07/28 05:10:10;;;;;;;428.70;409.67;;;14.30;99.90;;;;;;4878223;29;20425;-79
2022/07/28 05:12:38;;;;;;;385.20;367.08;;;14.30;99.90;;;;;;4889011;29;20405;-82
2022/07/28 05:15:07;;;;;;;322.10;307.38;;;14.30;99.90;;;;;;4896927;29;20871;-81
2022/07/28 05:17:35;;;;;;;375.77;359.35;;;14.20;99.90;;;;;;4890891;29;20825;-82
2022/07/28 05:20:04;;;;;;;370.90;353.50;;;14.20;99.90;;;;;;4896442;29;20423;-82
2022/07/28 05:22:46;;;;;;;414.13;395.20;;;14.20;99.90;;;;;;4894397;29;20493;-82
2022/07/28 05:25:20;;;;;;;303.08;287.45;;;14.30;99.90;;;;;;4903995;29;20913;-82
2022/07/28 05:27:49;;;;;;;391.85;375.02;;;14.10;99.90;;;;;;4887554;29;20572;-81
2022/07/28 05:30:18;;;;;;;412.60;394.30;;;14.20;99.90;;;;;;4887688;29;20418;-82
2022/07/28 05:32:47;;;;;;;337.30;322.20;;;14.30;99.90;;;;;;4896028;29;20414;-81
2022/07/28 05:35:15;;;;;;;387.27;369.33;;;14.20;99.90;;;;;;4901405;29;20415;-82
2022/07/28 05:37:43;;;;;;;328.93;314.00;;;14.30;99.90;;;;;;4902589;29;20415;-81
2022/07/28 05:40:13;;;;;;;400.27;382.92;;;14.30;99.90;;;;;;4877627;29;20441;-82
2022/07/28 05:42:42;;;;;;;330.80;315.13;;;14.30;99.90;;;;;;4889498;29;20417;-82
2022/07/28 05:45:10;;;;;;;314.35;299.27;;;14.30;99.90;;;;;;4892973;29;20430;-81
2022/07/28 05:47:48;;;;;;;360.45;344.13;;;14.30;99.90;;;;;;4894247;29;20773;-82
2022/07/28 05:50:17;;;;;;;350.33;334.35;;;14.20;99.90;;;;;;4899108;29;20508;-82
2022/07/28 05:52:46;;;;;;;379.70;362.30;;;14.30;99.90;;;;;;4894928;29;20425;-82
2022/07/28 05:55:14;;;;;;;428.50;409.77;;;14.30;99.90;;;;;;4882682;29;20494;-82
2022/07/28 05:57:42;;;;;;;439.83;421.05;;;14.30;99.90;;;;;;4895527;29;20417;-81
2022/07/28 06:00:15;;;;;;;309.63;294.80;;;14.40;99.90;;;;;;4886788;29;20934;-81
2022/07/28 06:02:45;;;;;;;380.13;363.30;;;14.40;99.90;;;;;;4881651;29;20430;-82
2022/07/28 06:05:16;;;;;;;413.85;395.85;;;14.40;99.90;;;;;;4903615;29;20417;-82
2022/07/28 06:07:45;;;;;;;295.55;282.50;;;14.40;99.90;;;;;;4888192;29;20746;-82
2022/07/28 06:10:14;;;;;;;333.08;317.55;;;14.50;99.90;;;;;;4887269;29;20451;-81
2022/07/28 06:12:48;;;;;;;361.53;345.73;;;14.50;99.90;;;;;;4884825;29;20961;-82
2022/07/28 06:15:19;;;;;;;375.13;358.33;;;14.60;99.90;;;;;;4906613;29;20417;-81
2022/07/28 06:17:51;;;;;;;338.23;323.47;;;14.50;99.90;;;;;;4895243;29;20472;-81
2022/07/28 06:20:23;;;;;;;288.70;275.52;;;14.50;99.90;;;;;;4887170;29;20413;-81
2022/07/28 06:22:53;;;;;;;377.58;361.45;;;14.60;99.90;;;;;;4886806;29;20488;-82
2022/07/28 06:25:27;;;;;;;404.42;386.67;;;14.60;99.90;;;;;;4896339;29;20501;-81
2022/07/28 06:27:57;;;;;;;349.63;333.83;;;14.60;99.90;;;;;;4887772;29;20415;-82
2022/07/28 06:30:25;;;;;;;348.63;333.45;;;14.60;99.90;;;;;;4894949;29;20497;-81
2022/07/28 06:32:53;;;;;;;415.67;398.08;;;14.60;99.90;;;;;;4886625;29;20411;-81
2022/07/28 06:35:21;;;;;;;387.55;371.65;;;14.70;99.90;;;;;;4892072;29;20419;-82
2022/07/28 06:37:50;;;;;;;292.73;278.58;;;14.70;99.90;;;;;;4898994;29;20413;-83
2022/07/28 06:40:19;;;;;;;335.65;320.20;;;14.80;99.90;;;;;;4894764;29;20421;-81
2022/07/28 06:42:48;;;;;;;345.00;329.55;;;14.70;99.90;;;;;;4898029;29;20425;-82
2022/07/28 06:45:21;;;;;;;405.47;387.83;;;14.70;99.90;;;;;;4919933;29;20419;-83
2022/07/28 06:47:52;;;;;;;285.75;271.77;;;14.80;99.90;;;;;;4891892;29;21466;-82
2022/07/28 06:50:21;;;;;;;360.60;345.45;;;14.70;99.90;;;;;;4897264;29;20445;-82
2022/07/28 06:52:56;;;;;;;427.13;409.05;;;14.80;99.90;;;;;;4899822;29;20513;-83
2022/07/28 06:55:28;;;;;;;366.17;350.60;;;14.90;99.90;;;;;;4905017;29;20417;-83
2022/07/28 06:58:03;;;;;;;265.40;252.98;;;14.80;99.90;;;;;;4910370;29;20396;-82
2022/07/28 07:00:33;;;;;;;380.10;364.55;;;14.80;99.90;;;;;;4912137;29;20424;-82
2022/07/28 07:03:01;;;;;;;299.92;287.17;;;14.80;99.90;;;;;;4895125;29;20421;-83
2022/07/28 07:05:30;;;;;;;280.35;267.02;;;14.80;99.90;;;;;;4888184;29;20423;-82
2022/07/28 07:07:59;;;;;;;414.37;396.80;;;14.80;99.90;;;;;;4888745;29;20495;-81
2022/07/28 07:10:27;;;;;;;367.60;352.05;;;14.80;99.90;;;;;;4898763;29;20411;-82
2022/07/28 07:12:54;;;;;;;408.80;391.27;;;14.90;99.90;;;;;;4893937;29;20419;-82
2022/07/28 07:15:22;;;;;;;351.65;334.27;;;15.00;99.90;;;;;;4885640;29;20495;-82
2022/07/28 07:17:51;;;;;;;370.48;354.52;;;15.00;99.90;;;;;;4886726;29;20455;-82
2022/07/28 07:20:19;;;;;;;392.88;375.95;;;15.00;99.90;;;;;;4883478;29;20915;-82
2022/07/28 07:22:47;;;;;;;341.70;327.15;;;15.00;99.90;;;;;;4885153;29;20419;-83
2022/07/28 07:25:16;;;;;;;385.83;368.63;;;15.10;99.90;;;;;;4900174;29;20819;-82
2022/07/28 07:27:45;;;;;;;351.08;335.45;;;15.10;99.90;;;;;;4898125;29;20411;-82
2022/07/28 07:30:14;;;;;;;283.48;270.17;;;15.20;99.90;;;;;;4887777;29;20461;-82
2022/07/28 07:32:43;;;;;;;325.58;311.40;;;15.20;99.90;;;;;;4892436;29;20419;-82
2022/07/28 07:35:11;;;;;;;325.10;310.77;;;15.10;99.90;;;;;;4900367;29;20407;-82
2022/07/28 07:37:39;;;;;;;384.05;367.92;;;15.10;99.90;;;;;;4883699;29;20500;-82
2022/07/28 07:40:08;;;;;;;301.80;287.60;;;15.00;99.90;;;;;;4886531;29;20413;-82
2022/07/28 07:42:37;;;;;;;314.77;300.25;;;15.10;99.90;;;;;;4898564;29;20426;-82
2022/07/28 07:45:05;;;;;;;352.13;335.85;;;15.10;99.90;;;;;;4899212;29;20419;-82
2022/07/28 07:47:33;;;;;;;281.87;268.47;;;15.10;99.90;;;;;;4888882;29;20421;-82
2022/07/28 07:50:00;;;;;;;295.10;282.42;;;15.10;99.90;;;;;;4892773;29;20419;-82
2022/07/28 07:52:36;;;;;;;292.52;279.35;;;15.10;99.90;;;;;;4898967;29;20425;-81
2022/07/28 07:55:05;;;;;;;313.05;298.23;;;15.10;99.90;;;;;;4890890;29;20945;-82
2022/07/28 07:57:34;;;;;;;358.83;342.33;;;15.10;99.90;;;;;;4876890;29;20402;-82
2022/07/28 08:00:05;;;;;;;316.27;302.65;;;15.10;99.90;;;;;;4901302;29;20481;-82
2022/07/28 08:02:37;;;;;;;357.73;341.38;;;15.30;99.90;;;;;;4889116;29;20456;-82
2022/07/28 08:05:06;;;;;;;330.23;316.17;;;15.50;99.90;;;;;;4896833;29;20986;-83
2022/07/28 08:07:35;;;;;;;307.17;291.65;;;15.50;99.90;;;;;;4894699;29;20499;-83
2022/07/28 08:10:04;;;;;;;302.83;287.25;;;15.80;99.90;;;;;;4894300;29;20411;-83
2022/07/28 08:12:31;;;;;;;288.88;274.60;;;16.00;99.90;;;;;;4895791;29;20899;-82
2022/07/28 08:14:59;;;;;;;348.27;333.25;;;16.10;99.90;;;;;;4888492;29;20415;-82
2022/07/28 08:17:27;;;;;;;288.07;275.70;;;16.10;99.90;;;;;;4890864;29;20413;-82
2022/07/28 08:19:55;;;;;;;377.67;360.90;;;16.10;99.90;;;;;;4897654;29;20510;-82
2022/07/28 08:22:24;;;;;;;335.60;321.20;;;16.00;99.90;;;;;;4888122;29;20454;-82
2022/07/28 08:24:51;;;;;;;291.60;278.23;;;16.00;99.90;;;;;;4894668;29;20441;-82
2022/07/28 08:27:19;;;;;;;269.13;256.02;;;15.90;99.90;;;;;;4902644;29;20394;-83
2022/07/28 08:29:47;;;;;;;281.13;268.67;;;16.00;99.90;;;;;;4897091;29;20757;-83
2022/07/28 08:32:15;;;;;;;282.02;270.00;;;16.00;99.90;;;;;;4896893;29;20413;-83
2022/07/28 08:34:43;;;;;;;246.85;235.25;;;15.90;99.90;;;;;;4896632;29;20429;-83
2022/07/28 08:37:10;;;;;;;314.73;301.15;;;15.90;99.90;;;;;;4894890;29;20917;-82
2022/07/28 08:39:38;;;;;;;258.42;248.43;;;15.80;99.90;;;;;;4888644;29;20486;-83
2022/07/28 08:42:07;;;;;;;310.23;297.38;;;15.80;99.90;;;;;;4896198;29;20413;-82
2022/07/28 08:44:39;;;;;;;329.70;315.60;;;15.90;99.90;;;;;;4889984;29;20498;-82
2022/07/28 08:47:10;;;;;;;299.00;286.52;;;15.90;99.90;;;;;;4895762;29;20444;-82
2022/07/28 08:49:41;;;;;;;336.40;322.65;;;15.90;99.90;;;;;;4883289;29;20914;-83
2022/07/28 08:52:13;;;;;;;289.42;276.27;;;16.00;99.90;;;;;;4890195;29;20859;-82
2022/07/28 08:54:45;;;;;;;233.40;221.75;;;16.10;99.90;;;;;;4887562;29;20886;-82
2022/07/28 08:57:36;;;;;;;345.83;331.00;;;16.10;99.90;;;;;;4889822;29;20452;-83
2022/07/28 09:00:08;;;;;;;284.20;272.13;;;16.20;99.90;;;;;;4876127;29;20421;-83
2022/07/28 09:02:46;;;;;;;271.60;259.23;;;16.10;99.90;;;;;;4881826;29;20433;-83
2022/07/28 09:05:23;;;;;;;233.45;222.98;;;16.10;99.90;;;;;;4888174;29;20470;-82
2022/07/28 09:07:54;;;;;;;287.08;274.63;;;16.20;99.90;;;;;;4888379;29;20403;-82
2022/07/28 09:10:23;;;;;;;271.88;259.50;;;16.20;99.90;;;;;;4885357;29;20452;-82
2022/07/28 09:12:51;;;;;;;306.77;294.17;;;16.20;99.90;;;;;;4887832;29;20412;-83
2022/07/28 09:15:20;;;;;;;292.87;280.00;;;16.20;99.90;;;;;;4898108;29;20411;-81
2022/07/28 09:17:49;;;;;;;317.90;302.20;;;16.30;99.90;;;;;;4887034;29;20397;-82
2022/07/28 09:20:18;;;;;;;404.52;387.20;;;16.40;99.90;;;;;;4896232;29;20789;-82
2022/07/28 09:23:05;;;;;;;303.25;289.58;;;16.30;99.90;;;;;;4887560;29;20906;-81
2022/07/28 09:26:08;;;;;;;287.58;275.55;;;16.30;99.90;;;;;;4886637;29;20424;-83
2022/07/28 09:28:54;;;;;;;297.00;282.95;;;16.20;99.90;;;;;;4889684;29;20421;-83
2022/07/28 09:31:26;;;;;;;228.30;217.57;;;16.20;99.90;;;;;;4884051;29;20410;-82
2022/07/28 09:34:02;;;;;;;304.55;290.48;;;16.10;99.90;;;;;;4894385;29;20466;-81
2022/07/28 09:36:40;;;;;;;271.17;258.95;;;16.20;99.90;;;;;;4886938;29;20463;-82
2022/07/28 09:39:09;;;;;;;290.85;278.33;;;16.10;99.90;;;;;;4878091;29;20950;-82
2022/07/28 09:41:49;;;;;;;259.73;247.55;;;16.20;99.90;;;;;;4887796;29;20870;-82
2022/07/28 09:44:21;;;;;;;270.15;257.17;;;16.10;99.90;;;;;;4885866;29;20502;-81
2022/07/28 09:46:49;;;;;;;327.52;312.58;;;16.10;99.90;;;;;;4901272;29;20424;-82
2022/07/28 09:49:18;;;;;;;324.60;308.73;;;15.90;99.90;;;;;;4887012;29;20449;-83
2022/07/28 09:52:00;;;;;;;366.08;349.00;;;15.70;99.90;;;;;;4893280;29;20747;-81
2022/07/28 09:54:28;;;;;;;427.65;408.20;;;15.60;99.90;;;;;;4877839;29;20489;-81
2022/07/28 09:56:56;;;;;;;440.85;420.08;;;15.30;99.90;;;;;;4883789;29;20417;-82
2022/07/28 09:59:24;;;;;;;351.58;332.55;;;15.20;99.90;;;;;;4900197;29;20819;-82
2022/07/28 10:02:00;;;;;;;460.35;438.10;;;15.10;99.90;;;;;;4880688;29;20478;-82
2022/07/28 10:04:38;;;;;;;421.48;401.73;;;15.20;99.90;;;;;;4888860;29;20409;-82
2022/07/28 10:07:15;;;;;;;447.15;426.00;;;15.40;99.90;;;;;;4888887;29;20422;-83
2022/07/28 10:09:57;;;;;;;458.30;436.55;;;15.50;99.90;;;;;;4903377;29;20410;-81
2022/07/28 10:12:30;;;;;;;387.20;367.17;;;15.50;99.90;;;;;;4890998;29;20409;-81
2022/07/28 10:16:09;;;;;;;442.77;422.27;;;15.60;99.90;;;;;;4886343;29;20486;-82
2022/07/28 10:18:01;;;;;;;495.48;472.58;;;15.70;99.90;;;;;;4886311;29;20456;-82
2022/07/28 10:20:31;;;;;;;305.42;290.42;;;15.80;99.90;;;;;;4903261;29;20758;-82
2022/07/28 10:23:09;;;;;;;318.15;303.23;;;15.70;99.90;;;;;;4886406;29;20908;-81
2022/07/28 10:25:42;;;;;;;372.55;356.25;;;15.60;99.90;;;;;;4896213;29;20762;-83
2022/07/28 10:28:15;;;;;;;333.65;320.10;;;15.60;99.90;;;;;;4899059;29;20820;-83
2022/07/28 10:30:49;;;;;;;371.58;356.52;;;15.70;99.90;;;;;;4902137;29;20969;-83
2022/07/28 10:33:18;;;;;;;353.80;339.63;;;15.70;99.90;;;;;;4890291;29;20422;-82
2022/07/28 10:35:48;;;;;;;339.42;325.35;;;15.80;99.90;;;;;;4880323;29;20492;-82
2022/07/28 10:38:26;;;;;;;316.17;302.83;;;15.70;99.90;;;;;;4886870;29;20485;-83
2022/07/28 10:40:57;;;;;;;336.77;320.83;;;15.60;99.90;;;;;;4886837;29;20402;-81
2022/07/28 10:43:29;;;;;;;392.40;376.23;;;15.50;99.90;;;;;;4891373;29;20492;-83
2022/07/28 10:46:02;;;;;;;371.40;355.10;;;15.40;99.90;;;;;;4898617;29;20409;-82
2022/07/28 10:48:39;;;;;;;397.23;379.63;;;15.30;99.90;;;;;;4885766;29;20762;-83
2022/07/28 10:51:10;;;;;;;301.77;286.23;;;15.30;99.90;;;;;;4886887;29;20413;-82
2022/07/28 10:54:23;;;;;;;397.67;381.15;;;15.30;99.90;;;;;;4888210;29;20409;-83
2022/07/28 10:56:57;;;;;;;368.30;352.50;;;15.40;99.90;;;;;;4885286;29;20429;-82
2022/07/28 10:59:31;;;;;;;374.52;358.65;;;15.40;99.90;;;;;;4896236;29;20788;-82
2022/07/28 11:01:59;;;;;;;347.25;332.63;;;15.60;99.90;;;;;;4901926;29;20413;-83
2022/07/28 11:04:47;;;;;;;328.45;312.55;;;15.70;99.90;;;;;;4884467;29;20420;-82
2022/07/28 11:07:17;;;;;;;370.10;353.73;;;15.70;99.90;;;;;;4906763;29;20786;-82
2022/07/28 11:09:46;;;;;;;347.33;331.53;;;15.70;99.90;;;;;;4892820;29;20421;-82
2022/07/28 11:12:15;;;;;;;326.35;311.35;;;15.70;99.90;;;;;;4893438;29;21115;-82
2022/07/28 11:14:44;;;;;;;399.20;382.57;;;15.70;99.90;;;;;;4887990;29;20395;-83
2022/07/28 11:17:16;;;;;;;409.63;393.23;;;15.60;99.90;;;;;;4886430;29;20452;-82
2022/07/28 11:19:55;;;;;;;366.45;352.20;;;15.60;99.90;;;;;;4880059;29;20928;-82
2022/07/28 11:22:42;;;;;;;390.73;375.17;;;15.70;99.90;;;;;;4885963;29;20422;-82
2022/07/28 11:25:13;;;;;;;344.27;330.52;;;15.80;99.90;;;;;;4885821;29;20640;-82
2022/07/28 11:27:53;;;;;;;380.95;366.23;;;15.80;99.90;;;;;;4892422;29;20409;-83
2022/07/28 11:30:30;;;;;;;338.98;323.65;;;15.80;99.90;;;;;;4892869;29;20413;-83
2022/07/28 11:33:00;;;;;;;296.83;283.52;;;15.90;99.90;;;;;;4886719;29;20474;-82
2022/07/28 11:35:38;;;;;;;375.27;358.70;;;15.90;99.90;;;;;;4905676;29;20896;-83
2022/07/28 11:38:07;;;;;;;338.52;325.23;;;16.00;99.90;;;;;;4881647;29;20773;-83
2022/07/28 11:40:36;;;;;;;304.67;292.45;;;16.10;99.90;;;;;;4900148;29;20474;-83
2022/07/28 11:43:25;;;;;;;280.05;268.13;;;16.10;99.90;;;;;;4897572;29;20502;-83
2022/07/28 11:46:07;;;;;;;316.88;303.23;;;16.10;99.90;;;;;;4914995;29;20422;-82
2022/07/28 11:48:40;;;;;;;386.73;370.48;;;16.20;99.90;;;;;;4921871;29;20397;-82
2022/07/28 11:51:12;;;;;;;306.70;293.98;;;16.30;99.90;;;;;;4895514;29;20423;-82
2022/07/28 11:53:44;;;;;;;334.95;319.73;;;16.30;99.90;;;;;;4891323;29;20504;-83
2022/07/28 11:56:14;;;;;;;306.33;294.33;;;16.40;99.90;;;;;;4905532;29;20418;-83
2022/07/28 11:58:42;;;;;;;317.00;304.00;;;16.60;99.90;;;;;;4895693;29;20886;-82
2022/07/28 12:01:19;;;;;;;319.00;306.33;;;16.70;99.90;;;;;;4894650;29;20411;-82
2022/07/28 12:03:49;;;;;;;279.07;267.13;;;16.70;99.90;;;;;;4884585;29;20427;-83
2022/07/28 12:06:35;;;;;;;334.42;320.88;;;16.80;99.90;;;;;;4902771;29;21019;-83
2022/07/28 12:09:08;;;;;;;321.30;308.13;;;16.90;99.90;;;;;;4889046;29;20829;-82
2022/07/28 12:11:39;;;;;;;297.17;285.85;;;17.00;99.90;;;;;;4895731;29;20525;-84
2022/07/28 12:14:12;;;;;;;305.20;292.95;;;17.00;99.90;;;;;;4888646;29;20499;-83
2022/07/28 12:16:44;;;;;;;317.17;302.95;;;17.20;99.90;;;;;;4905311;29;20417;-83
2022/07/28 12:19:15;;;;;;;283.53;271.70;;;17.40;99.90;;;;;;4890291;29;20444;-83
2022/07/28 12:21:49;;;;;;;312.55;298.98;;;17.40;99.90;;;;;;4889093;29;20407;-83
2022/07/28 12:24:28;;;;;;;290.45;278.20;;;17.30;99.90;;;;;;4889224;29;20403;-83
2022/07/28 12:26:59;;;;;;;254.15;243.77;;;17.20;99.90;;;;;;4902821;29;20417;-83
2022/07/28 12:29:30;;;;;;;313.40;300.13;;;17.10;99.90;;;;;;4902916;29;20892;-82
2022/07/28 12:32:08;;;;;;;271.75;260.42;;;17.20;99.90;;;;;;4897786;29;20422;-83